createdAt,value
2022-10-23T00:01:14.176Z,94.14
2022-10-23T00:03:40.715Z,93.97
2022-10-23T00:06:07.485Z,93.79
2022-10-23T00:08:34.396Z,93.74
2022-10-23T00:11:00.808Z,93.73
2022-10-23T00:13:27.198Z,93.91
2022-10-23T00:15:53.529Z,93.95
2022-10-23T00:18:20.133Z,93.73
2022-10-23T00:20:46.490Z,93.74
2022-10-23T00:23:12.877Z,93.89
2022-10-23T00:25:39.204Z,93.99
2022-10-23T00:28:05.976Z,94.07
2022-10-23T00:30:32.353Z,93.91
2022-10-23T00:32:58.688Z,94.07
2022-10-23T00:35:25.171Z,93.94
2022-10-23T00:37:51.618Z,93.88
2022-10-23T00:40:18.119Z,94.00
2022-10-23T00:42:44.683Z,93.94
2022-10-23T00:45:27.124Z,94.16
2022-10-23T00:47:55.139Z,94.15
2022-10-23T00:50:23.930Z,94.24
2022-10-23T00:52:54.361Z,94.47
2022-10-23T00:55:22.593Z,94.58
2022-10-23T00:57:50.805Z,93.99
2022-10-23T01:00:26.898Z,94.42
2022-10-23T01:02:54.905Z,94.54
2022-10-23T01:05:27.158Z,94.72
2022-10-23T01:08:21.455Z,94.51
2022-10-23T01:10:54.481Z,94.86
2022-10-23T01:13:37.706Z,95.07
2022-10-23T01:16:21.973Z,95.26
2022-10-23T01:18:58.680Z,95.40
2022-10-23T01:21:43.651Z,94.99
2022-10-23T01:24:27.279Z,95.12
2022-10-23T01:27:29.788Z,95.24
2022-10-23T01:30:02.291Z,95.22
2022-10-23T01:32:50.978Z,95.00
2022-10-23T01:35:25.253Z,95.05
2022-10-23T01:37:59.709Z,94.93
2022-10-23T01:40:41.196Z,94.97
2022-10-23T01:43:19.315Z,94.75
2022-10-23T01:45:53.247Z,94.90
2022-10-23T01:48:24.915Z,94.66
2022-10-23T01:50:54.989Z,94.56
2022-10-23T01:53:22.522Z,94.62
2022-10-23T01:55:50.957Z,94.70
2022-10-23T01:58:21.002Z,94.57
2022-10-23T02:00:50.055Z,94.47
2022-10-23T02:03:17.641Z,94.13
2022-10-23T02:05:45.132Z,94.20
2022-10-23T02:08:11.816Z,94.15
2022-10-23T02:10:56.442Z,94.10
2022-10-23T02:13:33.568Z,94.09
2022-10-23T02:16:15.934Z,94.46
2022-10-23T02:19:03.398Z,94.40
2022-10-23T02:22:05.102Z,94.43
2022-10-23T02:24:36.337Z,94.58
2022-10-23T02:27:07.833Z,94.44
2022-10-23T02:29:45.927Z,94.51
2022-10-23T02:32:14.496Z,94.70
2022-10-23T02:34:41.104Z,94.38
2022-10-23T02:37:07.629Z,94.13
2022-10-23T02:39:34.324Z,94.11
2022-10-23T02:42:08.698Z,94.53
2022-10-23T02:44:56.757Z,94.81
2022-10-23T02:47:35.177Z,94.90
2022-10-23T02:50:09.848Z,95.08
2022-10-23T02:52:46.624Z,95.25
2022-10-23T02:55:37.449Z,95.17
2022-10-23T02:58:20.472Z,95.13
2022-10-23T03:00:52.927Z,95.14
2022-10-23T03:03:29.271Z,95.37
2022-10-23T03:05:56.117Z,95.28
2022-10-23T03:08:22.599Z,95.19
2022-10-23T03:13:15.313Z,95.49
2022-10-23T03:15:41.673Z,95.09
2022-10-23T03:18:08.106Z,94.98
2022-10-23T03:20:34.473Z,94.90
2022-10-23T03:23:00.880Z,94.84
2022-10-23T03:25:27.371Z,94.57
2022-10-23T03:27:53.862Z,94.97
2022-10-23T03:30:20.347Z,94.83
2022-10-23T03:32:46.702Z,94.85
2022-10-23T03:35:13.062Z,95.02
2022-10-23T03:37:39.660Z,95.23
2022-10-23T03:40:06.849Z,95.42
2022-10-23T03:42:33.201Z,95.79
2022-10-23T03:44:59.513Z,95.55
2022-10-23T03:47:26.001Z,95.76
2022-10-23T03:49:52.626Z,95.59
2022-10-23T03:52:19.094Z,95.84
2022-10-23T03:54:45.540Z,95.71
2022-10-23T03:57:12.245Z,95.61
2022-10-23T03:59:38.701Z,95.71
2022-10-23T04:02:05.138Z,95.75
2022-10-23T04:04:31.589Z,95.68
2022-10-23T04:06:58.035Z,95.34
2022-10-23T04:09:24.666Z,95.38
2022-10-23T04:11:51.002Z,95.61
2022-10-23T04:14:17.361Z,95.66
2022-10-23T04:16:43.708Z,95.87
2022-10-23T04:19:10.215Z,95.59
2022-10-23T04:21:36.627Z,95.88
2022-10-23T04:24:03.609Z,96.04
2022-10-23T04:26:30.006Z,95.97
2022-10-23T04:28:56.538Z,96.14
2022-10-23T04:31:22.931Z,96.07
2022-10-23T04:33:49.348Z,96.52
2022-10-23T04:36:15.697Z,96.11
2022-10-23T04:38:42.255Z,96.28
2022-10-23T04:41:08.664Z,96.21
2022-10-23T04:43:35.105Z,96.28
2022-10-23T04:46:01.477Z,96.20
2022-10-23T04:48:29.191Z,96.25
2022-10-23T04:51:05.108Z,96.35
2022-10-23T04:53:31.526Z,96.55
2022-10-23T04:55:59.385Z,96.42
2022-10-23T04:58:27.202Z,96.22
2022-10-23T05:00:53.887Z,96.41
2022-10-23T05:03:22.057Z,96.41
2022-10-23T05:05:48.402Z,96.17
2022-10-23T05:08:17.897Z,95.99
2022-10-23T05:10:44.819Z,96.04
2022-10-23T05:13:11.185Z,96.23
2022-10-23T05:15:37.563Z,96.26
2022-10-23T05:18:16.911Z,96.27
2022-10-23T05:20:45.580Z,96.52
2022-10-23T05:23:14.208Z,96.61
2022-10-23T05:25:40.726Z,96.75
2022-10-23T05:28:07.614Z,96.82
2022-10-23T05:30:34.212Z,96.97
2022-10-23T05:33:03.722Z,97.25
2022-10-23T05:35:30.917Z,97.18
2022-10-23T05:37:59.932Z,97.02
2022-10-23T05:40:26.708Z,96.99
2022-10-23T05:42:53.190Z,97.52
2022-10-23T05:45:19.773Z,97.67
2022-10-23T05:47:46.635Z,97.88
2022-10-23T05:50:13.197Z,97.96
2022-10-23T05:52:39.660Z,98.05
2022-10-23T05:55:06.639Z,98.18
2022-10-23T05:57:33.759Z,98.24
2022-10-23T06:00:00.473Z,98.11
2022-10-23T06:02:26.893Z,97.97
2022-10-23T06:04:53.294Z,98.01
2022-10-23T06:07:26.548Z,97.94
2022-10-23T06:09:53.019Z,97.98
2022-10-23T06:12:21.020Z,98.00
2022-10-23T06:14:47.948Z,98.00
2022-10-23T06:17:14.676Z,98.09
2022-10-23T06:19:41.416Z,97.98
2022-10-23T06:22:07.812Z,97.89
2022-10-23T06:24:34.242Z,98.11
2022-10-23T06:27:00.556Z,98.24
2022-10-23T06:29:27.135Z,98.34
2022-10-23T06:31:53.498Z,98.30
2022-10-23T06:34:19.849Z,98.20
2022-10-23T06:36:46.243Z,98.17
2022-10-23T06:39:13.033Z,98.12
2022-10-23T06:41:41.908Z,97.94
2022-10-23T06:44:10.157Z,97.74
2022-10-23T06:46:36.924Z,97.77
2022-10-23T06:49:03.729Z,97.70
2022-10-23T06:51:30.074Z,97.81
2022-10-23T06:53:56.910Z,97.63
2022-10-23T06:56:25.274Z,97.89
2022-10-23T06:58:52.383Z,97.58
2022-10-23T07:01:19.690Z,97.58
2022-10-23T07:03:48.117Z,97.64
2022-10-23T07:06:14.872Z,97.75
2022-10-23T07:08:41.655Z,97.72
2022-10-23T07:11:10.417Z,97.90
2022-10-23T07:13:38.483Z,97.81
2022-10-23T07:16:12.769Z,97.84
2022-10-23T07:18:39.675Z,97.89
2022-10-23T07:21:06.071Z,98.16
2022-10-23T07:23:32.550Z,97.86
2022-10-23T07:26:10.933Z,97.92
2022-10-23T07:28:37.721Z,97.99
2022-10-23T07:31:04.315Z,98.06
2022-10-23T07:33:30.696Z,98.20
2022-10-23T07:35:57.091Z,98.16
2022-10-23T07:38:23.768Z,98.04
2022-10-23T07:40:50.284Z,98.03
2022-10-23T07:43:18.404Z,97.99
2022-10-23T07:45:47.621Z,98.22
2022-10-23T07:48:14.398Z,98.10
2022-10-23T07:50:40.755Z,98.22
2022-10-23T07:53:07.130Z,98.41
2022-10-23T07:55:33.525Z,98.56
2022-10-23T07:57:59.872Z,98.58
2022-10-23T08:00:26.330Z,98.68
2022-10-23T08:02:52.716Z,98.87
2022-10-23T08:05:20.189Z,98.86
2022-10-23T08:07:46.676Z,99.28
2022-10-23T08:10:13.033Z,99.41
2022-10-23T08:12:39.375Z,99.61
2022-10-23T08:15:06.185Z,99.73
2022-10-23T08:17:32.582Z,99.68
2022-10-23T08:19:58.993Z,99.70
2022-10-23T08:22:25.344Z,99.86
2022-10-23T08:24:51.684Z,99.81
2022-10-23T08:27:18.021Z,99.84
2022-10-23T08:29:44.592Z,99.61
2022-10-23T08:32:10.941Z,99.57
2022-10-23T08:34:37.871Z,99.51
2022-10-23T08:37:04.220Z,99.54
2022-10-23T08:39:30.666Z,99.46
2022-10-23T08:41:57.271Z,99.24
2022-10-23T08:44:40.586Z,98.96
2022-10-23T08:47:28.662Z,98.78
2022-10-23T08:50:34.727Z,98.63
2022-10-23T08:53:12.589Z,98.45
2022-10-23T08:55:44.810Z,98.32
2022-10-23T08:58:34.724Z,98.09
2022-10-23T09:01:02.953Z,97.93
2022-10-23T09:03:29.333Z,97.67
2022-10-23T09:06:09.439Z,97.45
2022-10-23T09:08:52.212Z,97.34
2022-10-23T09:11:48.063Z,97.07
2022-10-23T09:14:36.141Z,96.60
2022-10-23T09:17:19.341Z,96.23
2022-10-23T09:19:46.318Z,96.15
2022-10-23T09:22:13.573Z,95.64
2022-10-23T09:24:43.236Z,95.51
2022-10-23T09:27:15.125Z,95.21
2022-10-23T09:29:48.731Z,95.00
2022-10-23T09:32:15.190Z,95.08
2022-10-23T09:34:55.109Z,94.88
2022-10-23T09:37:25.333Z,94.54
2022-10-23T09:40:12.665Z,94.64
2022-10-23T09:42:54.715Z,94.55
2022-10-23T09:45:30.629Z,94.32
2022-10-23T09:48:05.447Z,94.12
2022-10-23T09:50:31.890Z,94.04
2022-10-23T09:52:58.529Z,93.93
2022-10-23T09:55:25.972Z,93.94
2022-10-23T09:57:53.716Z,94.06
2022-10-23T10:00:23.483Z,94.03
2022-10-23T10:02:59.251Z,94.14
2022-10-23T10:05:30.239Z,93.83
2022-10-23T10:08:38.536Z,93.70
2022-10-23T10:11:30.278Z,93.44
2022-10-23T10:14:07.498Z,93.28
2022-10-23T10:16:48.715Z,93.17
2022-10-23T10:19:33.830Z,92.98
2022-10-23T10:22:26.162Z,92.52
2022-10-23T10:25:02.938Z,92.38
2022-10-23T10:27:41.412Z,92.19
2022-10-23T10:30:15.885Z,91.74
2022-10-23T10:32:59.122Z,91.97
2022-10-23T10:35:39.071Z,91.92
2022-10-23T10:38:36.188Z,91.68
2022-10-23T10:41:28.900Z,91.43
2022-10-23T10:44:09.239Z,91.46
2022-10-23T10:47:18.549Z,91.06
2022-10-23T10:49:59.632Z,91.09
2022-10-23T10:52:37.740Z,90.94
2022-10-23T10:55:10.181Z,90.60
2022-10-23T10:57:45.959Z,90.70
2022-10-23T11:00:17.439Z,90.13
2022-10-23T11:02:51.505Z,90.01
2022-10-23T11:05:26.567Z,89.87
2022-10-23T11:07:58.203Z,89.98
2022-10-23T11:10:24.657Z,89.86
2022-10-23T11:12:51.730Z,89.58
2022-10-23T11:15:25.951Z,89.48
2022-10-23T11:17:58.506Z,89.19
2022-10-23T11:21:00.634Z,88.95
2022-10-23T11:23:48.242Z,88.83
2022-10-23T11:26:19.726Z,88.87
2022-10-23T11:29:09.210Z,88.68
2022-10-23T11:32:01.820Z,88.61
2022-10-23T11:34:46.516Z,88.25
2022-10-23T11:37:18.198Z,88.08
2022-10-23T11:40:01.303Z,87.46
2022-10-23T11:42:41.290Z,86.99
2022-10-23T11:45:26.934Z,86.46
2022-10-23T11:48:21.013Z,85.77
2022-10-23T11:50:47.329Z,85.64
2022-10-23T11:53:43.157Z,84.79
2022-10-23T11:56:12.343Z,84.39
2022-10-23T11:58:56.771Z,84.52
2022-10-23T12:01:39.683Z,83.12
2022-10-23T12:04:14.829Z,83.44
2022-10-23T12:06:47.926Z,83.23
2022-10-23T12:09:31.637Z,82.00
2022-10-23T12:12:15.628Z,82.80
2022-10-23T12:14:46.691Z,82.43
2022-10-23T12:17:22.341Z,81.85
2022-10-23T12:20:03.271Z,81.71
2022-10-23T12:22:39.559Z,81.56
2022-10-23T12:25:14.690Z,81.57
2022-10-23T12:28:03.467Z,81.29
2022-10-23T12:33:40.947Z,81.38
2022-10-23T12:36:50.566Z,81.15
2022-10-23T12:39:32.102Z,80.79
2022-10-23T12:42:00.486Z,81.07
2022-10-23T12:44:27.766Z,81.52
2022-10-23T12:46:57.582Z,81.01
2022-10-23T12:49:27.289Z,81.25
2022-10-23T12:52:02.471Z,81.19
2022-10-23T12:54:31.934Z,80.74
2022-10-23T12:56:58.334Z,80.94
2022-10-23T12:59:37.802Z,80.74
2022-10-23T13:02:24.823Z,80.60
2022-10-23T13:04:54.182Z,80.47
2022-10-23T13:07:25.216Z,80.56
2022-10-23T13:09:52.603Z,80.71
2022-10-23T13:12:27.996Z,80.67
2022-10-23T13:15:18.427Z,80.19
2022-10-23T13:18:09.257Z,79.79
2022-10-23T13:20:38.491Z,80.42
2022-10-23T13:23:07.805Z,80.05
2022-10-23T13:25:36.727Z,79.92
2022-10-23T13:28:23.737Z,80.49
2022-10-23T13:31:07.242Z,80.00
2022-10-23T13:33:41.956Z,79.90
2022-10-23T13:36:13.386Z,80.11
2022-10-23T13:38:42.669Z,79.84
2022-10-23T13:41:20.370Z,79.61
2022-10-23T13:43:48.009Z,79.20
2022-10-23T13:46:19.211Z,78.65
2022-10-23T13:48:46.596Z,78.24
2022-10-23T13:51:22.157Z,78.35
2022-10-23T13:53:49.144Z,77.68
2022-10-23T13:56:18.939Z,77.65
2022-10-23T13:58:45.590Z,77.50
2022-10-23T14:01:33.441Z,77.52
2022-10-23T14:04:00.063Z,77.56
2022-10-23T14:06:26.502Z,78.10
2022-10-23T14:08:52.906Z,77.84
2022-10-23T14:11:20.356Z,77.85
2022-10-23T14:13:47.591Z,77.89
2022-10-23T14:16:15.856Z,78.24
2022-10-23T14:18:43.199Z,78.62
2022-10-23T14:21:12.469Z,78.60
2022-10-23T14:23:38.812Z,78.69
2022-10-23T14:26:10.965Z,78.50
2022-10-23T14:28:37.615Z,78.57
2022-10-23T14:31:15.356Z,78.05
2022-10-23T14:33:42.494Z,78.30
2022-10-23T14:36:09.404Z,77.69
2022-10-23T14:38:36.397Z,77.36
2022-10-23T14:41:02.940Z,77.21
2022-10-23T14:43:29.351Z,77.42
2022-10-23T14:45:55.727Z,77.38
2022-10-23T14:48:22.064Z,77.59
2022-10-23T14:50:49.857Z,77.87
2022-10-23T14:53:16.706Z,78.14
2022-10-23T14:55:43.064Z,78.29
2022-10-23T14:58:09.490Z,78.73
2022-10-23T15:00:35.833Z,78.60
2022-10-23T15:03:02.233Z,78.81
2022-10-23T15:05:28.683Z,79.01
2022-10-23T15:07:55.709Z,79.32
2022-10-23T15:10:22.020Z,79.24
2022-10-23T15:12:49.028Z,79.41
2022-10-23T15:15:15.459Z,79.56
2022-10-23T15:17:42.288Z,79.71
2022-10-23T15:20:09.210Z,80.00
2022-10-23T15:22:35.619Z,80.37
2022-10-23T15:25:01.982Z,80.59
2022-10-23T15:27:28.452Z,80.82
2022-10-23T15:29:54.765Z,81.35
2022-10-23T15:32:21.225Z,81.51
2022-10-23T15:34:49.575Z,81.88
2022-10-23T15:37:16.115Z,82.06
2022-10-23T15:39:42.660Z,82.48
2022-10-23T15:42:10.255Z,82.60
2022-10-23T15:44:36.682Z,82.75
2022-10-23T15:47:03.297Z,82.92
2022-10-23T15:49:30.890Z,83.16
2022-10-23T15:51:57.461Z,83.19
2022-10-23T15:54:25.932Z,83.48
2022-10-23T15:56:54.014Z,83.53
2022-10-23T15:59:22.906Z,83.60
2022-10-23T16:01:49.732Z,83.80
2022-10-23T16:04:16.816Z,83.80
2022-10-23T16:06:46.198Z,83.89
2022-10-23T16:09:12.822Z,84.12
2022-10-23T16:11:41.335Z,84.25
2022-10-23T16:14:11.413Z,84.48
2022-10-23T16:16:37.742Z,84.54
2022-10-23T16:19:04.838Z,84.80
2022-10-23T16:21:35.622Z,85.08
2022-10-23T16:24:04.778Z,84.95
2022-10-23T16:26:31.823Z,85.30
2022-10-23T16:29:01.334Z,85.16
2022-10-23T16:31:28.186Z,85.35
2022-10-23T16:36:29.154Z,85.51
2022-10-23T16:38:55.742Z,85.44
2022-10-23T16:41:22.178Z,85.39
2022-10-23T16:43:48.554Z,85.48
2022-10-23T16:46:20.474Z,85.64
2022-10-23T16:48:47.957Z,85.56
2022-10-23T16:51:20.166Z,85.79
2022-10-23T16:53:46.994Z,85.96
2022-10-23T16:56:16.487Z,86.15
2022-10-23T16:58:43.555Z,86.36
2022-10-23T17:01:14.011Z,86.42
2022-10-23T17:03:43.144Z,86.59
2022-10-23T17:06:11.936Z,86.54
2022-10-23T17:08:39.131Z,86.74
2022-10-23T17:11:14.761Z,86.75
2022-10-23T17:13:43.785Z,86.98
2022-10-23T17:16:30.457Z,87.09
2022-10-23T17:18:57.485Z,86.95
2022-10-23T17:21:24.429Z,87.03
2022-10-23T17:23:50.854Z,87.10
2022-10-23T17:26:19.754Z,87.06
2022-10-23T17:28:46.388Z,87.22
2022-10-23T17:31:22.244Z,87.03
2022-10-23T17:33:51.655Z,87.20
2022-10-23T17:36:19.805Z,87.24
2022-10-23T17:38:46.471Z,87.33
2022-10-23T17:41:14.681Z,87.31
2022-10-23T17:43:42.416Z,87.37
2022-10-23T17:46:10.579Z,87.21
2022-10-23T17:48:37.658Z,87.48
2022-10-23T17:51:09.943Z,87.35
2022-10-23T17:53:38.279Z,87.37
2022-10-23T17:56:06.709Z,87.30
2022-10-23T17:58:33.582Z,87.25
2022-10-23T18:01:07.357Z,87.33
2022-10-23T18:03:34.610Z,87.18
2022-10-23T18:06:07.960Z,87.10
2022-10-23T18:08:36.114Z,87.27
2022-10-23T18:11:04.371Z,87.35
2022-10-23T18:13:32.689Z,87.57
2022-10-23T18:16:07.560Z,87.31
2022-10-23T18:18:34.649Z,87.52
2022-10-23T18:21:01.890Z,87.28
2022-10-23T18:23:29.477Z,87.01
2022-10-23T18:25:57.957Z,87.10
2022-10-23T18:28:25.092Z,87.08
2022-10-23T18:30:53.417Z,87.03
2022-10-23T18:33:23.007Z,86.96
2022-10-23T18:35:49.742Z,86.89
2022-10-23T18:38:16.303Z,87.13
2022-10-23T18:40:43.858Z,86.96
2022-10-23T18:43:14.891Z,86.88
2022-10-23T18:45:42.211Z,86.88
2022-10-23T18:48:08.666Z,86.86
2022-10-23T18:50:36.917Z,86.79
2022-10-23T18:53:03.720Z,86.88
2022-10-23T18:55:30.143Z,87.17
2022-10-23T18:57:56.866Z,87.00
2022-10-23T19:00:23.269Z,86.83
2022-10-23T19:02:52.314Z,87.09
2022-10-23T19:05:19.308Z,87.15
2022-10-23T19:07:46.190Z,87.28
2022-10-23T19:10:17.746Z,87.83
2022-10-23T19:12:44.313Z,88.04
2022-10-23T19:15:10.880Z,88.53
2022-10-23T19:17:37.581Z,88.78
2022-10-23T19:20:11.375Z,89.05
2022-10-23T19:22:40.884Z,89.46
2022-10-23T19:25:16.619Z,89.82
2022-10-23T19:27:44.892Z,90.23
2022-10-23T19:30:13.669Z,90.53
2022-10-23T19:32:41.566Z,90.61
2022-10-23T19:35:09.510Z,90.82
2022-10-23T19:37:38.678Z,91.17
2022-10-23T19:40:07.069Z,91.25
2022-10-23T19:42:35.038Z,91.51
2022-10-23T19:45:01.491Z,91.52
2022-10-23T19:47:27.836Z,91.75
2022-10-23T19:49:55.229Z,91.82
2022-10-23T19:52:22.660Z,91.86
2022-10-23T19:54:49.932Z,91.99
2022-10-23T19:57:19.223Z,91.92
2022-10-23T19:59:52.305Z,92.04
2022-10-23T20:02:20.183Z,92.28
2022-10-23T20:04:46.894Z,92.49
2022-10-23T20:07:13.853Z,92.82
2022-10-23T20:09:40.558Z,93.00
2022-10-23T20:12:06.961Z,93.21
2022-10-23T20:14:33.826Z,93.32
2022-10-23T20:17:01.555Z,93.25
2022-10-23T20:19:29.061Z,93.21
2022-10-23T20:21:55.410Z,93.21
2022-10-23T20:24:21.921Z,92.79
2022-10-23T20:26:52.218Z,92.38
2022-10-23T20:29:18.715Z,91.56
2022-10-23T20:31:45.185Z,90.58
2022-10-23T20:34:11.886Z,89.74
2022-10-23T20:36:46.538Z,89.03
2022-10-23T20:39:20.233Z,88.76
2022-10-23T20:41:47.152Z,88.48
2022-10-23T20:46:47.428Z,87.50
2022-10-23T20:49:14.609Z,87.65
2022-10-23T20:51:41.002Z,87.58
2022-10-23T20:54:07.506Z,87.69
2022-10-23T20:56:36.841Z,87.77
2022-10-23T20:59:10.277Z,87.96
2022-10-23T21:01:39.936Z,87.87
2022-10-23T21:04:06.392Z,87.86
2022-10-23T21:06:45.811Z,88.08
2022-10-23T21:09:22.815Z,88.11
2022-10-23T21:11:49.365Z,88.12
2022-10-23T21:14:15.818Z,88.13
2022-10-23T21:16:44.352Z,88.32
2022-10-23T21:19:13.353Z,88.24
2022-10-23T21:21:40.762Z,88.32
2022-10-23T21:24:09.410Z,88.30
2022-10-23T21:26:36.429Z,87.99
2022-10-23T21:29:19.337Z,88.11
2022-10-23T21:31:51.848Z,87.99
2022-10-23T21:34:18.182Z,88.12
2022-10-23T21:37:07.567Z,88.37
2022-10-23T21:39:32.742Z,88.47
2022-10-23T21:41:59.097Z,88.43
2022-10-23T21:44:25.433Z,88.76
2022-10-23T21:46:51.787Z,88.82
2022-10-23T21:49:18.331Z,88.93
2022-10-23T21:51:44.718Z,89.24
2022-10-23T21:54:14.711Z,89.29
2022-10-23T21:56:46.905Z,89.48
2022-10-23T21:59:15.864Z,89.72
2022-10-23T22:01:44.839Z,89.65
2022-10-23T22:04:14.165Z,89.79
2022-10-23T22:06:41.669Z,89.89
2022-10-23T22:09:09.709Z,89.90
2022-10-23T22:11:36.174Z,90.03
2022-10-23T22:14:02.662Z,89.90
2022-10-23T22:16:30.584Z,89.92
2022-10-23T22:18:57.829Z,89.95
2022-10-23T22:21:26.915Z,89.80
2022-10-23T22:23:58.705Z,89.50
2022-10-23T22:26:28.354Z,89.88
2022-10-23T22:28:57.848Z,89.75
2022-10-23T22:31:29.640Z,90.05
2022-10-23T22:33:56.858Z,90.33
2022-10-23T22:36:24.116Z,90.82
2022-10-23T22:38:50.622Z,91.43
2022-10-23T22:41:17.403Z,91.54
2022-10-23T22:43:43.973Z,92.10
2022-10-23T22:46:13.725Z,92.48
2022-10-23T22:48:40.687Z,92.78
2022-10-23T22:51:09.057Z,92.84
2022-10-23T22:53:35.840Z,92.89
2022-10-23T22:56:06.087Z,92.69
2022-10-23T22:58:33.710Z,92.52
2022-10-23T23:01:36.421Z,92.60
2022-10-23T23:04:13.865Z,92.68
2022-10-23T23:06:49.413Z,92.54
2022-10-23T23:09:18.071Z,92.63
2022-10-23T23:11:51.425Z,92.58
2022-10-23T23:14:22.920Z,92.58
2022-10-23T23:16:51.330Z,92.33
2022-10-23T23:19:20.019Z,92.71
2022-10-23T23:21:46.498Z,92.61
2022-10-23T23:24:13.101Z,92.63
2022-10-23T23:26:39.807Z,92.36
2022-10-23T23:29:09.641Z,92.67
2022-10-23T23:31:38.145Z,92.41
2022-10-23T23:34:04.576Z,92.62
2022-10-23T23:36:31.017Z,92.68
2022-10-23T23:38:58.129Z,92.87
2022-10-23T23:41:26.348Z,92.76
2022-10-23T23:43:54.636Z,93.22
2022-10-23T23:46:21.102Z,93.23
2022-10-23T23:48:49.305Z,93.37
2022-10-23T23:51:22.129Z,93.36
2022-10-23T23:53:49.576Z,93.48
2022-10-23T23:56:16.933Z,93.36
2022-10-23T23:58:43.618Z,93.31
